EDGS

Siegerland Airport

Germany
TAF EDGS 211700Z 2118/2203 29004KT CAVOK
Issued Valid From Valid To
Jul-21 @ 17:00 UTC
(6 hours ago)
Jul-21 @ 18:00 UTC
(5 hours ago)
Jul-22 @ 03:00 UTC
(in 4 hours)
Jul-21 @ 18:00 to Jul-22 @ 03:00
TAF EDGS 211700Z 2118/2203 29004KT CAVOK
Wind Visibility Clouds Conditions
290° at 4 knots 10,000+ meters
  • No significant clouds
TAF EDGS 211700Z 2118/2203 29004KT CAVOK
Issued Jul-21 @ 17:00 UTC
(6 hours ago)
Valid From Jul-21 @ 18:00 UTC
(5 hours ago)
Valid To Jul-22 @ 03:00 UTC
(in 4 hours)
Jul-21 @ 18:00 - Jul-22 @ 03:00
Wind Visibility
290° at 4 knots 10,000+ meters
Clouds
  • No significant clouds
Conditions